createdAt,value
2019-04-01T00:02:46.109Z,101291.84
2019-04-01T00:07:50.034Z,101291.84
2019-04-01T00:12:53.951Z,101288.30
2019-04-01T00:17:57.864Z,101287.43
2019-04-01T00:23:01.882Z,101286.95
2019-04-01T00:28:05.776Z,101299.91
2019-04-01T00:33:09.547Z,101298.45
2019-04-01T00:38:13.328Z,101291.58
2019-04-01T00:43:24.917Z,101291.58
2019-04-01T00:48:28.822Z,101304.92
2019-04-01T00:53:32.615Z,101304.55
2019-04-01T00:58:36.470Z,101313.20
2019-04-01T01:03:40.235Z,101312.72
2019-04-01T01:08:44.217Z,101312.72
2019-04-01T01:13:47.989Z,101319.87
2019-04-01T01:18:51.746Z,101320.42
2019-04-01T01:23:55.505Z,101322.84
2019-04-01T01:28:59.302Z,101319.77
2019-04-01T01:34:03.075Z,101319.77
2019-04-01T01:39:06.900Z,101321.13
2019-04-01T01:44:10.706Z,101310.16
2019-04-01T01:49:14.498Z,101304.41
2019-04-01T01:54:18.285Z,101307.09
2019-04-01T01:59:22.057Z,101303.17
2019-04-01T02:04:25.825Z,101310.76
2019-04-01T02:09:29.623Z,101310.76
2019-04-01T02:14:33.399Z,101311.45
2019-04-01T02:19:37.172Z,101306.08
2019-04-01T02:24:40.953Z,101311.83
2019-04-01T02:29:44.733Z,101303.88
2019-04-01T02:34:48.496Z,101307.91
2019-04-01T02:39:52.261Z,101307.91
2019-04-01T02:44:56.018Z,101308.49
2019-04-01T02:49:59.838Z,101307.64
2019-04-01T02:55:06.574Z,101300.61
2019-04-01T03:00:09.158Z,101301.48
2019-04-01T03:05:12.918Z,101301.48
2019-04-01T03:10:16.718Z,101307.44
2019-04-01T03:15:20.487Z,101307.44
2019-04-01T03:20:24.255Z,101313.47
2019-04-01T03:25:28.013Z,101307.41
2019-04-01T03:30:31.789Z,101307.41
2019-04-01T03:35:35.558Z,101318.09
2019-04-01T03:40:39.345Z,101318.09
2019-04-01T03:45:43.164Z,101317.44
2019-04-01T03:50:46.959Z,101293.86
2019-04-01T03:55:50.829Z,101299.41
2019-04-01T04:00:54.614Z,101306.12
2019-04-01T04:05:58.431Z,101314.48
2019-04-01T04:11:02.230Z,101314.09
2019-04-01T04:16:06.088Z,101314.09
2019-04-01T04:21:09.897Z,101306.13
2019-04-01T04:26:13.776Z,101318.22
2019-04-01T04:31:17.567Z,101328.09
2019-04-01T04:36:21.326Z,101324.55
2019-04-01T04:41:25.141Z,101324.55
2019-04-01T04:46:29.002Z,101322.83
2019-04-01T04:51:32.826Z,101322.83
2019-04-01T04:56:36.594Z,101331.15
2019-04-01T05:01:40.484Z,101335.75
2019-04-01T05:06:44.337Z,101335.37
2019-04-01T05:11:48.308Z,101335.37
2019-04-01T05:16:52.153Z,101331.83
2019-04-01T05:21:55.917Z,101338.64
2019-04-01T05:27:00.085Z,101345.93
2019-04-01T05:32:03.866Z,101345.93
2019-04-01T05:37:09.162Z,101352.33
2019-04-01T05:42:13.059Z,101352.33
2019-04-01T05:47:17.332Z,101350.22
2019-04-01T05:52:21.930Z,101351.56
2019-04-01T05:57:25.709Z,101350.70
2019-04-01T06:02:29.648Z,101350.70
2019-04-01T06:07:33.569Z,101355.97
2019-04-01T06:12:37.377Z,101355.97
2019-04-01T06:17:41.164Z,101358.85
2019-04-01T06:22:45.044Z,101362.39
2019-04-01T06:27:48.979Z,101372.65
2019-04-01T06:32:52.750Z,101365.94
2019-04-01T06:37:56.528Z,101365.94
2019-04-01T06:43:00.415Z,101368.63
2019-04-01T06:48:04.336Z,101364.31
2019-04-01T06:53:08.122Z,101360.67
2019-04-01T06:58:12.210Z,101369.48
2019-04-01T07:03:18.579Z,101365.31
2019-04-01T07:08:21.715Z,101368.87
2019-04-01T07:13:25.531Z,101368.87
2019-04-01T07:18:29.396Z,101368.99
2019-04-01T07:23:33.181Z,101375.03
2019-04-01T07:28:36.967Z,101373.89
2019-04-01T07:33:40.756Z,101373.29
2019-04-01T07:38:44.547Z,101374.09
2019-04-01T07:43:48.565Z,101368.47
2019-04-01T07:48:52.394Z,101355.72
2019-04-01T07:53:56.209Z,101355.72
2019-04-01T07:59:00.003Z,101366.13
2019-04-01T08:04:03.872Z,101360.00
2019-04-01T08:09:07.822Z,101367.19
2019-04-01T08:14:11.622Z,101359.22
2019-04-01T08:19:15.479Z,101357.97
2019-04-01T08:24:19.364Z,101355.50
2019-04-01T08:29:30.202Z,101351.95
2019-04-01T08:34:28.647Z,101347.07
2019-04-01T08:39:32.493Z,101345.58
2019-04-01T08:44:36.279Z,101346.26
2019-04-01T08:49:40.082Z,101345.84
2019-04-01T08:54:43.859Z,101342.88
2019-04-01T08:59:48.147Z,101350.64
2019-04-01T09:04:51.923Z,101328.89
2019-04-01T09:09:55.704Z,101339.24
2019-04-01T09:14:59.475Z,101329.85
2019-04-01T09:20:03.500Z,101335.60
2019-04-01T09:25:07.548Z,101335.60
2019-04-01T09:30:11.412Z,101335.88
2019-04-01T09:35:15.188Z,101325.05
2019-04-01T09:40:18.949Z,101329.84
2019-04-01T09:45:22.732Z,101329.84
2019-04-01T09:50:26.543Z,101320.53
2019-04-01T09:55:30.328Z,101330.59
2019-04-01T10:00:34.102Z,101315.56
2019-04-01T10:05:37.906Z,101314.31
2019-04-01T10:10:41.690Z,101314.31
2019-04-01T10:15:45.475Z,101300.97
2019-04-01T10:20:49.259Z,101300.97
2019-04-01T10:25:53.073Z,101289.00
2019-04-01T10:30:56.873Z,101279.15
2019-04-01T10:36:00.663Z,101265.66
2019-04-01T10:41:04.521Z,101262.12
2019-04-01T10:46:11.964Z,101262.12
2019-04-01T10:51:13.819Z,101249.84
2019-04-01T10:56:17.589Z,101236.16
2019-04-01T11:01:21.402Z,101248.06
2019-04-01T11:06:25.223Z,101227.36
2019-04-01T11:11:28.983Z,101232.24
2019-04-01T11:16:32.772Z,101232.24
2019-04-01T11:21:36.545Z,101234.66
2019-04-01T11:26:40.319Z,101218.72
2019-04-01T11:31:44.095Z,101211.36
2019-04-01T11:36:47.867Z,101211.36
2019-04-01T11:41:51.660Z,101204.93
2019-04-01T11:46:55.542Z,101195.64
2019-04-01T11:51:59.403Z,101193.57
2019-04-01T11:57:03.294Z,101182.41
2019-04-01T12:02:07.053Z,101177.09
2019-04-01T12:07:10.848Z,101169.56
2019-04-01T12:12:23.499Z,101154.45
2019-04-01T12:17:20.186Z,101147.34
2019-04-01T12:22:23.971Z,101139.50
2019-04-01T12:27:27.776Z,101139.50
2019-04-01T12:32:31.651Z,101120.63
2019-04-01T12:37:35.439Z,101120.42
2019-04-01T12:42:39.253Z,101111.68
2019-04-01T12:47:43.604Z,101109.30
2019-04-01T12:52:47.545Z,101109.30
2019-04-01T12:57:51.344Z,101087.53
2019-04-01T13:02:55.160Z,101073.55
2019-04-01T13:07:58.939Z,101073.55
2019-04-01T13:13:02.751Z,101058.52
2019-04-01T13:18:06.522Z,101049.69
2019-04-01T13:23:10.348Z,101043.27
2019-04-01T13:28:14.140Z,101034.30
2019-04-01T13:33:20.933Z,101034.30
2019-04-01T13:38:24.972Z,101025.56
2019-04-01T13:43:28.904Z,101013.27
2019-04-01T13:48:32.682Z,101013.27
2019-04-01T13:53:36.526Z,101013.37
2019-04-01T13:58:40.414Z,100997.38
2019-04-01T14:03:44.293Z,100982.27
2019-04-01T14:08:48.173Z,100976.70
2019-04-01T14:13:52.021Z,100966.85
2019-04-01T14:18:55.802Z,100966.85
2019-04-01T14:23:59.625Z,100958.60
2019-04-01T14:29:06.149Z,100950.23
2019-04-01T14:34:13.875Z,100939.86
2019-04-01T14:39:16.610Z,100933.41
2019-04-01T14:44:20.545Z,100925.64
2019-04-01T14:49:24.394Z,100922.00
2019-04-01T14:54:28.484Z,100922.00
2019-04-01T14:59:32.287Z,100918.52
2019-04-01T15:04:36.331Z,100902.22
2019-04-01T15:09:40.082Z,100887.98
2019-04-01T15:14:43.885Z,100895.27
2019-04-01T15:19:48.635Z,100895.27
2019-04-01T15:24:52.783Z,100869.68
2019-04-01T15:29:57.379Z,100882.85
2019-04-01T15:35:02.149Z,100882.85
2019-04-01T15:40:06.856Z,100865.77
2019-04-01T15:45:10.647Z,100861.25
2019-04-01T15:50:27.841Z,100850.52
2019-04-01T15:55:20.091Z,100843.91
2019-04-01T16:00:24.176Z,100844.66
2019-04-01T16:05:30.466Z,100824.39
2019-04-01T16:10:33.596Z,100823.91
2019-04-01T16:15:38.377Z,100829.62
2019-04-01T16:20:42.596Z,100829.62
2019-04-01T16:25:46.366Z,100824.28
2019-04-01T16:30:50.132Z,100811.61
2019-04-01T16:35:53.917Z,100800.32
2019-04-01T16:40:57.722Z,100801.91
2019-04-01T16:46:01.492Z,100797.76
2019-04-01T16:51:05.313Z,100797.76
2019-04-01T16:56:09.312Z,100798.53
2019-04-01T17:01:13.248Z,100796.17
2019-04-01T17:06:17.007Z,100797.76
2019-04-01T17:11:20.804Z,100802.56
2019-04-01T17:16:24.605Z,100798.62
2019-04-01T17:21:28.383Z,100798.62
2019-04-01T17:26:32.187Z,100798.94
2019-04-01T17:31:35.951Z,100790.75
2019-04-01T17:36:40.133Z,100793.89
2019-04-01T17:41:46.343Z,100793.89
2019-04-01T17:46:49.526Z,100793.80
2019-04-01T17:51:54.141Z,100793.80
2019-04-01T17:56:58.268Z,100793.71
2019-04-01T18:02:02.053Z,100798.02
2019-04-01T18:07:07.354Z,100798.02
2019-04-01T18:12:11.373Z,100808.66
2019-04-01T18:17:18.348Z,100814.88
2019-04-01T18:22:20.653Z,100810.31
2019-04-01T18:27:24.425Z,100811.17
2019-04-01T18:32:28.200Z,100819.45
2019-04-01T18:37:32.022Z,100821.41
2019-04-01T18:42:35.787Z,100826.60
2019-04-01T18:47:39.682Z,100824.52
2019-04-01T18:52:43.711Z,100822.56
2019-04-01T18:57:47.469Z,100818.25
2019-04-01T19:02:51.341Z,100818.25
2019-04-01T19:07:55.106Z,100811.93
2019-04-01T19:13:05.804Z,100805.94
2019-04-01T19:18:04.382Z,100805.94
2019-04-01T19:23:08.144Z,100808.72
2019-04-01T19:28:11.900Z,100808.72
2019-04-01T19:33:15.752Z,100816.41
2019-04-01T19:38:21.282Z,100808.22
2019-04-01T19:43:25.051Z,100808.22
2019-04-01T19:48:28.844Z,100811.37
2019-04-01T19:53:32.630Z,100812.25
2019-04-01T19:58:36.425Z,100805.87
2019-04-01T20:03:40.275Z,100795.23
2019-04-01T20:08:44.057Z,100787.98
2019-04-01T20:13:47.896Z,100788.47
2019-04-01T20:18:51.654Z,100782.12
2019-04-01T20:23:55.420Z,100780.69
2019-04-01T20:28:59.206Z,100782.40
2019-04-01T20:34:04.410Z,100772.37
2019-04-01T20:39:08.557Z,100772.37
2019-04-01T20:44:12.822Z,100756.98
2019-04-01T20:49:16.694Z,100752.91
2019-04-01T20:54:20.501Z,100749.73
2019-04-01T20:59:24.365Z,100744.03
2019-04-01T21:04:28.161Z,100744.03
2019-04-01T21:09:31.919Z,100734.58
2019-04-01T21:14:35.751Z,100730.06
2019-04-01T21:19:39.610Z,100730.06
2019-04-01T21:24:43.549Z,100725.78
2019-04-01T21:29:47.360Z,100721.14
2019-04-01T21:34:51.185Z,100721.14
2019-04-01T21:39:54.962Z,100707.82
2019-04-01T21:44:58.751Z,100707.82
2019-04-01T21:50:02.575Z,100711.85
2019-04-01T21:55:08.171Z,100701.68
2019-04-01T22:00:17.798Z,100701.68
2019-04-01T22:05:20.570Z,100699.63
2019-04-01T22:10:24.390Z,100694.26
2019-04-01T22:15:28.261Z,100680.30
2019-04-01T22:20:32.073Z,100682.66
2019-04-01T22:25:35.892Z,100672.60
2019-04-01T22:30:39.702Z,100667.99
2019-04-01T22:35:43.495Z,100665.52
2019-04-01T22:40:47.313Z,100653.79
2019-04-01T22:45:51.152Z,100649.15
2019-04-01T22:50:57.546Z,100645.12
2019-04-01T22:56:00.479Z,100645.12
2019-04-01T23:01:04.257Z,100632.53
2019-04-01T23:06:08.068Z,100632.53
2019-04-01T23:11:11.842Z,100638.88
2019-04-01T23:16:15.675Z,100633.14
2019-04-01T23:21:19.459Z,100632.29
2019-04-01T23:26:23.251Z,100628.02
2019-04-01T23:31:27.038Z,100624.47
2019-04-01T23:36:30.829Z,100624.47
2019-04-01T23:41:34.605Z,100624.59
2019-04-01T23:46:38.406Z,100610.77
2019-04-01T23:51:42.303Z,100602.58
2019-04-01T23:56:46.108Z,100592.94
